createdAt,value
2023-02-25T00:01:24.062Z,12.38
2023-02-25T00:03:55.336Z,12.75
2023-02-25T00:06:23.185Z,15.25
2023-02-25T00:08:50.585Z,13.43
2023-02-25T00:11:18.567Z,13.93
2023-02-25T00:13:45.098Z,12.18
2023-02-25T00:16:13.017Z,16.70
2023-02-25T00:18:44.065Z,14.32
2023-02-25T00:21:15.809Z,13.63
2023-02-25T00:24:15.213Z,13.55
2023-02-25T00:26:44.816Z,13.20
2023-02-25T00:29:11.187Z,12.68
2023-02-25T00:31:37.669Z,10.80
2023-02-25T00:34:04.206Z,17.83
2023-02-25T00:36:30.733Z,13.73
2023-02-25T00:38:57.605Z,15.35
2023-02-25T00:41:26.988Z,14.10
2023-02-25T00:44:00.708Z,15.15
2023-02-25T00:46:32.057Z,11.65
2023-02-25T00:48:59.606Z,10.35
2023-02-25T00:51:29.243Z,11.68
2023-02-25T00:53:56.418Z,18.25
2023-02-25T00:56:24.365Z,13.23
2023-02-25T00:58:52.094Z,15.55
2023-02-25T01:01:27.404Z,15.05
2023-02-25T01:03:56.620Z,15.52
2023-02-25T01:06:28.850Z,15.63
2023-02-25T01:08:55.635Z,12.27
2023-02-25T01:11:27.628Z,12.00
2023-02-25T01:13:55.826Z,15.38
2023-02-25T01:16:25.390Z,14.80
2023-02-25T01:18:53.921Z,15.38
2023-02-25T01:21:25.886Z,13.63
2023-02-25T01:24:06.190Z,14.23
2023-02-25T01:26:36.388Z,12.65
2023-02-25T01:29:09.295Z,13.35
2023-02-25T01:31:38.143Z,19.00
2023-02-25T01:34:06.604Z,15.75
2023-02-25T01:36:35.163Z,13.65
2023-02-25T01:39:03.417Z,15.27
2023-02-25T01:41:30.997Z,16.83
2023-02-25T01:44:10.251Z,16.95
2023-02-25T01:46:38.079Z,12.15
2023-02-25T01:49:13.344Z,13.55
2023-02-25T01:51:43.505Z,17.65
2023-02-25T01:54:11.251Z,12.85
2023-02-25T01:56:41.242Z,15.30
2023-02-25T01:59:08.563Z,14.57
2023-02-25T02:01:38.280Z,13.13
2023-02-25T02:04:11.688Z,12.00
2023-02-25T02:06:40.630Z,14.25
2023-02-25T02:09:13.226Z,11.05
2023-02-25T02:11:39.675Z,12.45
2023-02-25T02:14:08.752Z,16.20
2023-02-25T02:16:41.300Z,25.30
2023-02-25T02:19:54.526Z,16.23
2023-02-25T02:22:29.924Z,17.40
2023-02-25T02:25:15.023Z,13.30
2023-02-25T02:28:12.430Z,10.25
2023-02-25T02:30:52.536Z,10.88
2023-02-25T02:33:44.597Z,14.68
2023-02-25T02:36:22.407Z,9.82
2023-02-25T02:39:00.216Z,17.02
2023-02-25T02:41:26.772Z,12.48
2023-02-25T02:44:31.407Z,19.02
2023-02-25T02:47:03.935Z,14.00
2023-02-25T02:49:38.535Z,13.73
2023-02-25T02:52:18.811Z,14.30
2023-02-25T02:54:52.772Z,16.67
2023-02-25T02:57:22.038Z,13.57
2023-02-25T02:59:55.056Z,15.10
2023-02-25T03:02:27.873Z,13.57
2023-02-25T03:04:59.442Z,15.15
2023-02-25T03:07:26.644Z,10.23
2023-02-25T03:09:57.998Z,11.77
2023-02-25T03:12:24.528Z,12.98
2023-02-25T03:14:53.416Z,14.88
2023-02-25T03:17:24.944Z,13.75
2023-02-25T03:20:03.955Z,12.77
2023-02-25T03:22:37.830Z,17.85
2023-02-25T03:25:12.899Z,13.90
2023-02-25T03:27:44.560Z,16.05
2023-02-25T03:30:36.793Z,13.13
2023-02-25T03:33:09.282Z,16.60
2023-02-25T03:35:38.379Z,14.82
2023-02-25T03:38:09.559Z,14.80
2023-02-25T03:40:38.341Z,14.40
2023-02-25T03:43:11.196Z,14.52
2023-02-25T03:45:39.941Z,18.25
2023-02-25T03:48:09.272Z,15.80
2023-02-25T03:50:42.400Z,12.40
2023-02-25T03:53:09.003Z,13.27
2023-02-25T03:55:35.392Z,9.00
2023-02-25T03:58:02.723Z,16.60
2023-02-25T04:00:33.436Z,14.60
2023-02-25T04:03:00.492Z,9.68
2023-02-25T04:05:27.872Z,13.90
2023-02-25T04:07:58.826Z,11.63
2023-02-25T04:10:25.435Z,18.08
2023-02-25T04:12:52.183Z,15.15
2023-02-25T04:15:19.571Z,11.15
2023-02-25T04:17:46.096Z,19.65
2023-02-25T04:20:14.306Z,10.95
2023-02-25T04:22:40.795Z,14.38
2023-02-25T04:25:07.830Z,22.88
2023-02-25T04:27:34.420Z,13.93
2023-02-25T04:30:00.940Z,13.07
2023-02-25T04:32:27.523Z,17.98
2023-02-25T04:34:53.983Z,12.13
2023-02-25T04:37:20.351Z,11.55
2023-02-25T04:39:46.708Z,14.88
2023-02-25T04:42:13.116Z,11.70
2023-02-25T04:44:39.522Z,13.30
2023-02-25T04:47:05.881Z,16.77
2023-02-25T04:49:32.209Z,11.75
2023-02-25T04:51:59.526Z,13.38
2023-02-25T04:54:25.937Z,10.52
2023-02-25T04:56:52.322Z,14.75
2023-02-25T04:59:18.642Z,15.82
2023-02-25T05:01:45.043Z,14.25
2023-02-25T05:04:11.466Z,11.40
2023-02-25T05:06:39.195Z,16.05
2023-02-25T05:09:05.792Z,11.15
2023-02-25T05:11:32.307Z,15.40
2023-02-25T05:13:58.735Z,15.40
2023-02-25T05:16:26.507Z,16.40
2023-02-25T05:18:53.599Z,15.90
2023-02-25T05:21:23.307Z,16.45
2023-02-25T05:23:53.819Z,11.48
2023-02-25T05:26:23.353Z,18.40
2023-02-25T05:28:54.669Z,19.98
2023-02-25T05:31:25.424Z,15.38
2023-02-25T05:33:52.459Z,14.90
2023-02-25T05:36:19.032Z,11.18
2023-02-25T05:38:45.619Z,15.43
2023-02-25T05:41:13.092Z,15.68
2023-02-25T05:43:40.128Z,15.13
2023-02-25T05:46:11.744Z,17.58
2023-02-25T05:48:40.652Z,19.48
2023-02-25T05:51:10.784Z,19.25
2023-02-25T05:53:37.964Z,12.35
2023-02-25T05:56:11.334Z,13.00
2023-02-25T05:58:37.763Z,18.67
2023-02-25T06:01:13.404Z,15.93
2023-02-25T06:03:41.168Z,19.17
2023-02-25T06:06:08.464Z,12.20
2023-02-25T06:08:35.331Z,12.95
2023-02-25T06:11:02.145Z,20.88
2023-02-25T06:13:28.581Z,16.83
2023-02-25T06:15:55.194Z,16.65
2023-02-25T06:18:21.945Z,14.75
2023-02-25T06:20:48.323Z,24.27
2023-02-25T06:23:14.865Z,16.25
2023-02-25T06:25:41.369Z,19.00
2023-02-25T06:28:07.763Z,17.23
2023-02-25T06:30:34.253Z,13.95
2023-02-25T06:33:00.728Z,15.98
2023-02-25T06:35:27.204Z,23.02
2023-02-25T06:37:57.786Z,19.42
2023-02-25T06:40:24.431Z,15.32
2023-02-25T06:42:50.896Z,11.05
2023-02-25T06:45:20.700Z,20.25
2023-02-25T06:47:47.103Z,21.23
2023-02-25T06:50:17.262Z,16.38
2023-02-25T06:52:43.963Z,16.05
2023-02-25T06:55:10.487Z,15.73
2023-02-25T06:57:37.017Z,17.73
2023-02-25T07:00:05.500Z,17.35
2023-02-25T07:02:32.570Z,17.10
2023-02-25T07:05:00.677Z,22.65
2023-02-25T07:07:27.164Z,14.02
2023-02-25T07:09:53.550Z,18.85
2023-02-25T07:12:20.418Z,17.30
2023-02-25T07:14:46.903Z,13.48
2023-02-25T07:17:13.561Z,16.52
2023-02-25T07:19:40.056Z,17.58
2023-02-25T07:22:09.885Z,11.45
2023-02-25T07:24:36.435Z,17.30
2023-02-25T07:27:02.831Z,19.80
2023-02-25T07:29:29.242Z,22.95
2023-02-25T07:31:56.050Z,11.93
2023-02-25T07:34:22.585Z,18.83
2023-02-25T07:36:49.019Z,12.30
2023-02-25T07:39:15.360Z,14.55
2023-02-25T07:41:42.042Z,19.38
2023-02-25T07:44:09.295Z,14.38
2023-02-25T07:46:37.272Z,17.35
2023-02-25T07:49:05.561Z,16.98
2023-02-25T07:51:32.365Z,13.85
2023-02-25T07:53:59.445Z,17.58
2023-02-25T07:56:28.932Z,12.80
2023-02-25T07:58:55.524Z,15.57
2023-02-25T08:01:28.302Z,14.30
2023-02-25T08:03:57.751Z,13.20
2023-02-25T08:06:24.804Z,15.55
2023-02-25T08:08:52.202Z,13.90
2023-02-25T08:11:20.653Z,17.08
2023-02-25T08:13:50.352Z,12.57
2023-02-25T08:16:19.076Z,12.88
2023-02-25T08:18:59.595Z,12.50
2023-02-25T08:21:26.667Z,20.05
2023-02-25T08:23:54.276Z,17.83
2023-02-25T08:26:23.189Z,13.93
2023-02-25T08:28:51.505Z,17.73
2023-02-25T08:31:19.047Z,17.50
2023-02-25T08:33:52.853Z,16.58
2023-02-25T08:36:23.032Z,19.95
2023-02-25T08:38:50.738Z,13.60
2023-02-25T08:41:21.180Z,12.63
2023-02-25T08:43:54.613Z,16.35
2023-02-25T08:46:23.913Z,12.60
2023-02-25T08:48:51.734Z,18.90
2023-02-25T08:51:19.612Z,14.27
2023-02-25T08:53:46.468Z,18.30
2023-02-25T08:56:16.108Z,15.00
2023-02-25T08:58:43.954Z,17.08
2023-02-25T09:01:21.493Z,16.80
2023-02-25T09:03:54.860Z,13.43
2023-02-25T09:06:31.622Z,14.63
2023-02-25T09:08:58.645Z,11.75
2023-02-25T09:11:26.447Z,12.65
2023-02-25T09:13:53.735Z,15.43
2023-02-25T09:16:20.703Z,13.10
2023-02-25T09:18:48.886Z,12.23
2023-02-25T09:21:15.850Z,13.30
2023-02-25T09:23:42.931Z,11.50
2023-02-25T09:26:10.524Z,12.25
2023-02-25T09:28:36.914Z,12.38
2023-02-25T09:31:03.837Z,16.13
2023-02-25T09:33:36.024Z,16.60
2023-02-25T09:36:15.515Z,12.32
2023-02-25T09:38:54.103Z,12.70
2023-02-25T09:41:48.935Z,11.80
2023-02-25T09:47:15.480Z,13.55
2023-02-25T09:50:07.981Z,10.40
2023-02-25T09:52:52.491Z,10.75
2023-02-25T09:58:25.308Z,15.32
2023-02-25T10:01:10.003Z,11.35
2023-02-25T10:03:57.195Z,13.82
2023-02-25T10:06:38.443Z,11.65
2023-02-25T10:09:29.182Z,8.38
2023-02-25T10:12:10.962Z,11.23
2023-02-25T10:14:57.713Z,14.40
2023-02-25T10:17:58.465Z,12.70
2023-02-25T10:21:02.354Z,13.35
2023-02-25T10:23:59.694Z,8.48
2023-02-25T10:26:32.476Z,10.05
2023-02-25T10:29:04.357Z,11.65
2023-02-25T10:31:32.520Z,10.63
2023-02-25T10:34:14.197Z,8.57
2023-02-25T10:36:47.794Z,10.70
2023-02-25T10:39:14.227Z,11.40
2023-02-25T10:41:40.670Z,10.73
2023-02-25T10:44:12.892Z,8.23
2023-02-25T10:46:52.333Z,7.63
2023-02-25T10:49:22.880Z,6.60
2023-02-25T10:52:15.653Z,6.18
2023-02-25T10:54:49.676Z,7.25
2023-02-25T10:57:22.919Z,8.23
2023-02-25T11:00:18.871Z,7.72
2023-02-25T11:02:45.454Z,9.45
2023-02-25T11:05:30.826Z,10.32
2023-02-25T11:07:57.435Z,10.27
2023-02-25T11:10:25.041Z,11.57
2023-02-25T11:12:53.972Z,11.18
2023-02-25T11:15:41.671Z,10.63
2023-02-25T11:18:16.447Z,10.48
2023-02-25T11:21:07.211Z,9.23
2023-02-25T11:23:45.779Z,10.07
2023-02-25T11:26:27.278Z,9.13
2023-02-25T11:28:54.493Z,12.60
2023-02-25T11:31:25.993Z,9.32
2023-02-25T11:33:59.051Z,8.38
2023-02-25T11:36:35.235Z,8.23
2023-02-25T11:39:18.389Z,6.65
2023-02-25T11:41:47.041Z,6.80
2023-02-25T11:44:45.380Z,6.63
2023-02-25T11:47:17.617Z,4.95
2023-02-25T11:50:06.725Z,5.57
2023-02-25T11:53:13.488Z,4.90
2023-02-25T11:55:52.690Z,3.92
2023-02-25T11:58:22.851Z,4.07
2023-02-25T12:01:02.948Z,5.20
2023-02-25T12:03:56.224Z,3.92
2023-02-25T12:06:37.962Z,4.07
2023-02-25T12:09:18.798Z,5.40
2023-02-25T12:12:13.140Z,4.28
2023-02-25T12:14:56.192Z,4.38
2023-02-25T12:17:25.575Z,6.22
2023-02-25T12:20:09.325Z,7.03
2023-02-25T12:22:46.392Z,4.30
2023-02-25T12:25:39.101Z,4.13
2023-02-25T12:28:30.099Z,4.53
2023-02-25T12:31:25.776Z,4.13
2023-02-25T12:34:39.133Z,4.28
2023-02-25T12:37:30.788Z,4.45
2023-02-25T12:40:41.030Z,5.30
2023-02-25T12:43:31.379Z,3.90
2023-02-25T12:46:15.138Z,4.68
2023-02-25T12:49:01.506Z,4.53
2023-02-25T12:51:56.361Z,5.03
2023-02-25T12:54:53.864Z,4.28
2023-02-25T12:57:41.698Z,4.38
2023-02-25T13:00:33.456Z,4.78
2023-02-25T13:03:29.611Z,3.95
2023-02-25T13:06:28.327Z,3.78
2023-02-25T13:09:07.698Z,5.03
2023-02-25T13:12:11.128Z,4.13
2023-02-25T13:15:20.500Z,12.68
2023-02-25T13:17:46.874Z,5.50
2023-02-25T13:20:48.916Z,5.97
2023-02-25T13:23:41.496Z,6.22
2023-02-25T13:26:34.180Z,4.03
2023-02-25T13:29:05.047Z,4.32
2023-02-25T13:31:31.458Z,4.53
2023-02-25T13:34:30.019Z,6.03
2023-02-25T13:37:21.305Z,3.50
2023-02-25T13:40:07.656Z,9.18
2023-02-25T13:43:05.218Z,4.53
2023-02-25T13:46:02.422Z,8.13
2023-02-25T13:48:31.952Z,5.47
2023-02-25T13:51:42.414Z,4.38
2023-02-25T13:54:33.616Z,7.82
2023-02-25T13:57:36.263Z,5.53
2023-02-25T14:00:53.608Z,6.05
2023-02-25T14:03:32.117Z,5.80
2023-02-25T14:06:26.401Z,12.45
2023-02-25T14:09:26.030Z,4.78
2023-02-25T14:12:11.535Z,7.88
2023-02-25T14:15:02.563Z,5.07
2023-02-25T14:17:45.864Z,4.75
2023-02-25T14:20:37.454Z,9.32
2023-02-25T14:23:20.258Z,8.52
2023-02-25T14:26:05.076Z,4.65
2023-02-25T14:29:15.022Z,9.38
2023-02-25T14:32:18.978Z,4.78
2023-02-25T14:35:08.788Z,6.38
2023-02-25T14:38:05.052Z,4.80
2023-02-25T14:40:38.294Z,7.97
2023-02-25T14:43:25.421Z,6.22
2023-02-25T14:46:07.315Z,6.85
2023-02-25T14:48:48.984Z,6.50
2023-02-25T14:51:44.529Z,5.03
2023-02-25T14:54:26.035Z,7.60
2023-02-25T14:57:10.012Z,5.28
2023-02-25T14:59:39.298Z,4.68
2023-02-25T15:02:36.792Z,5.63
2023-02-25T15:05:34.054Z,4.80
2023-02-25T15:08:21.596Z,4.03
2023-02-25T15:11:26.063Z,3.88
2023-02-25T15:13:55.663Z,7.40
2023-02-25T15:16:46.654Z,4.38
2023-02-25T15:19:45.237Z,5.10
2023-02-25T15:22:18.038Z,7.43
2023-02-25T15:24:45.185Z,6.28
2023-02-25T15:27:43.641Z,5.22
2023-02-25T15:30:22.138Z,3.85
2023-02-25T15:33:14.160Z,5.30
2023-02-25T15:35:40.470Z,7.15
2023-02-25T15:38:15.618Z,5.55
2023-02-25T15:40:55.066Z,8.45
2023-02-25T15:43:23.835Z,6.50
2023-02-25T15:45:55.767Z,3.75
2023-02-25T15:48:31.595Z,3.97
2023-02-25T15:51:01.667Z,3.80
2023-02-25T15:53:29.206Z,3.33
2023-02-25T15:56:04.982Z,4.90
2023-02-25T15:58:31.335Z,4.22
2023-02-25T16:01:07.006Z,3.88
2023-02-25T16:03:36.421Z,4.25
2023-02-25T16:06:11.446Z,3.58
2023-02-25T16:08:45.432Z,3.60
2023-02-25T16:11:38.211Z,4.15
2023-02-25T16:14:13.937Z,6.45
2023-02-25T16:16:48.823Z,3.67
2023-02-25T16:19:19.109Z,3.50
2023-02-25T16:21:53.798Z,4.22
2023-02-25T16:24:20.249Z,3.75
2023-02-25T16:27:01.528Z,8.60
2023-02-25T16:29:55.571Z,3.67
2023-02-25T16:32:42.570Z,3.55
2023-02-25T16:35:15.789Z,6.30
2023-02-25T16:37:50.233Z,3.75
2023-02-25T16:40:25.007Z,3.25
2023-02-25T16:42:53.516Z,4.00
2023-02-25T16:45:30.118Z,4.80
2023-02-25T16:48:14.365Z,3.72
2023-02-25T16:50:44.415Z,5.47
2023-02-25T16:53:18.778Z,4.10
2023-02-25T16:55:45.418Z,4.72
2023-02-25T16:58:14.861Z,3.67
2023-02-25T17:00:59.322Z,4.75
2023-02-25T17:06:17.607Z,7.22
2023-02-25T17:08:48.408Z,4.70
2023-02-25T17:11:25.178Z,3.95
2023-02-25T17:13:55.878Z,4.97
2023-02-25T17:16:31.771Z,4.82
2023-02-25T17:19:03.932Z,3.90
2023-02-25T17:21:38.958Z,4.50
2023-02-25T17:24:11.256Z,4.95
2023-02-25T17:26:41.557Z,4.63
2023-02-25T17:29:15.287Z,7.38
2023-02-25T17:31:53.721Z,5.78
2023-02-25T17:34:28.783Z,5.18
2023-02-25T17:36:57.978Z,4.28
2023-02-25T17:39:29.521Z,4.50
2023-02-25T17:41:56.953Z,5.05
2023-02-25T17:44:49.652Z,4.22
2023-02-25T17:47:24.519Z,4.68
2023-02-25T17:49:51.532Z,4.05
2023-02-25T17:52:27.980Z,5.00
2023-02-25T17:55:05.072Z,4.18
2023-02-25T17:57:32.529Z,5.28
2023-02-25T18:00:09.689Z,5.88
2023-02-25T18:02:38.605Z,6.55
2023-02-25T18:05:21.495Z,7.15
2023-02-25T18:08:16.988Z,4.18
2023-02-25T18:10:46.441Z,4.10
2023-02-25T18:13:41.003Z,3.90
2023-02-25T18:16:32.033Z,5.53
2023-02-25T18:19:01.388Z,4.68
2023-02-25T18:21:28.794Z,4.20
2023-02-25T18:23:55.304Z,4.07
2023-02-25T18:26:24.642Z,5.15
2023-02-25T18:28:52.575Z,4.75
2023-02-25T18:31:27.565Z,5.30
2023-02-25T18:33:55.018Z,4.13
2023-02-25T18:36:31.620Z,3.65
2023-02-25T18:39:05.312Z,4.78
2023-02-25T18:41:34.848Z,4.47
2023-02-25T18:44:02.248Z,3.85
2023-02-25T18:46:29.240Z,7.13
2023-02-25T18:48:55.695Z,4.50
2023-02-25T18:51:22.151Z,4.00
2023-02-25T18:53:48.704Z,4.53
2023-02-25T18:56:18.464Z,4.95
2023-02-25T18:58:46.645Z,6.18
2023-02-25T19:01:23.836Z,4.72
2023-02-25T19:03:51.217Z,6.18
2023-02-25T19:06:20.726Z,4.70
2023-02-25T19:08:47.238Z,7.70
2023-02-25T19:11:25.161Z,5.05
2023-02-25T19:13:52.278Z,7.68
2023-02-25T19:16:19.264Z,7.00
2023-02-25T19:18:47.326Z,7.45
2023-02-25T19:21:18.574Z,5.90
2023-02-25T19:26:27.670Z,7.60
2023-02-25T19:28:57.592Z,6.40
2023-02-25T19:31:24.328Z,4.72
2023-02-25T19:33:50.735Z,11.60
2023-02-25T19:36:20.322Z,4.40
2023-02-25T19:38:47.059Z,9.82
2023-02-25T19:41:16.267Z,5.93
2023-02-25T19:43:42.761Z,4.78
2023-02-25T19:46:09.982Z,4.55
2023-02-25T19:48:36.547Z,12.65
2023-02-25T19:51:11.589Z,7.63
2023-02-25T19:53:38.529Z,4.47
2023-02-25T19:56:07.779Z,4.22
2023-02-25T19:58:34.305Z,4.75
2023-02-25T20:01:08.809Z,4.82
2023-02-25T20:03:36.236Z,5.88
2023-02-25T20:06:13.578Z,5.32
2023-02-25T20:08:40.460Z,10.40
2023-02-25T20:11:13.865Z,11.40
2023-02-25T20:13:40.350Z,12.73
2023-02-25T20:16:07.205Z,7.63
2023-02-25T20:18:33.566Z,6.70
2023-02-25T20:21:00.204Z,4.97
2023-02-25T20:23:29.340Z,7.18
2023-02-25T20:26:38.920Z,5.50
2023-02-25T20:29:05.954Z,5.25
2023-02-25T20:34:28.218Z,7.97
2023-02-25T20:37:01.058Z,9.50
2023-02-25T20:39:39.237Z,7.15
2023-02-25T20:42:13.904Z,8.77
2023-02-25T20:44:41.330Z,8.35
2023-02-25T20:47:13.009Z,7.68
2023-02-25T20:49:40.421Z,6.38
2023-02-25T20:52:07.097Z,10.85
2023-02-25T20:54:33.789Z,6.25
2023-02-25T20:57:00.452Z,9.27
2023-02-25T20:59:26.893Z,6.03
2023-02-25T21:01:53.414Z,8.07
2023-02-25T21:04:19.906Z,5.07
2023-02-25T21:06:46.434Z,9.13
2023-02-25T21:09:18.450Z,7.28
2023-02-25T21:11:45.044Z,8.20
2023-02-25T21:14:11.616Z,9.27
2023-02-25T21:16:38.851Z,5.90
2023-02-25T21:19:06.059Z,6.93
2023-02-25T21:21:37.137Z,8.82
2023-02-25T21:24:09.799Z,6.03
2023-02-25T21:26:39.226Z,6.95
2023-02-25T21:29:06.742Z,5.70
2023-02-25T21:31:33.389Z,6.03
2023-02-25T21:34:00.713Z,5.65
2023-02-25T21:36:27.953Z,8.52
2023-02-25T21:38:54.854Z,8.70
2023-02-25T21:41:21.357Z,14.35
2023-02-25T21:43:48.391Z,7.75
2023-02-25T21:46:16.231Z,5.63
2023-02-25T21:48:44.348Z,5.18
2023-02-25T21:51:19.964Z,6.25
2023-02-25T21:53:46.896Z,6.03
2023-02-25T21:56:16.102Z,5.28
2023-02-25T21:58:43.113Z,5.88
2023-02-25T22:01:24.525Z,4.93
2023-02-25T22:03:51.734Z,9.02
2023-02-25T22:06:18.753Z,5.63
2023-02-25T22:08:47.993Z,4.85
2023-02-25T22:11:20.918Z,6.07
2023-02-25T22:13:48.273Z,6.45
2023-02-25T22:16:18.035Z,6.82
2023-02-25T22:18:45.402Z,6.07
2023-02-25T22:21:15.966Z,9.80
2023-02-25T22:23:43.504Z,6.25
2023-02-25T22:26:13.452Z,5.03
2023-02-25T22:28:43.281Z,8.57
2023-02-25T22:31:15.134Z,9.38
2023-02-25T22:33:42.178Z,9.32
2023-02-25T22:36:10.454Z,6.38
2023-02-25T22:38:38.885Z,6.85
2023-02-25T22:44:22.418Z,7.35
2023-02-25T22:46:48.968Z,5.18
2023-02-25T22:49:15.460Z,9.55
2023-02-25T22:51:44.610Z,6.07
2023-02-25T22:54:13.604Z,7.18
2023-02-25T22:56:40.662Z,8.63
2023-02-25T22:59:07.255Z,5.55
2023-02-25T23:01:33.800Z,5.65
2023-02-25T23:04:00.471Z,5.35
2023-02-25T23:06:42.425Z,8.65
2023-02-25T23:09:10.672Z,9.80
2023-02-25T23:11:40.606Z,5.90
2023-02-25T23:14:07.101Z,6.05
2023-02-25T23:16:41.047Z,6.70
2023-02-25T23:25:31.267Z,10.90
2023-02-25T23:27:58.632Z,9.43
2023-02-25T23:30:26.500Z,9.52
2023-02-25T23:32:57.280Z,10.23
2023-02-25T23:35:24.797Z,8.82
2023-02-25T23:37:52.903Z,10.30
2023-02-25T23:40:19.496Z,9.07
2023-02-25T23:42:46.600Z,6.45
2023-02-25T23:45:14.723Z,7.28
2023-02-25T23:47:42.985Z,8.52
2023-02-25T23:50:12.781Z,7.22
2023-02-25T23:52:39.309Z,10.00
2023-02-25T23:55:09.672Z,9.95
2023-02-25T23:57:36.096Z,8.98
